Latest Coastal Weather Observations for Yamba

IDN60701

Issued at 12:11 am EST Thursday 25 April 2019 (issued every 10 minutes, with the page automatically refreshed every 10 minutes)

About coastal observations | Map of coastal stations | Coastal observations for NSW | Marine services | Other Formats
Station Details ID: 058012 Name: YAMBA PILOT STATION Lat: -29.43 Lon: 153.36 Height: 27.4 m
Data from the previous 72 hours. | See also: Recent months at Yamba
Date/Time
EST
Wind Sea
Height
m
Swell Vis
km
Cloud Weather Temp
°C
Press
hPa
Rain since
9am
mm
Dir  Spd
kts
Gust
kts
Height
m
Period
s
Dir
25/12:00am E 5 8 - - - - - - - 22.0 1021.5 0.0
 
Date/Time
EST
Wind Sea
Height
m
Swell Vis
km
Cloud Weather Temp
°C
Press
hPa
Rain since
9am
mm
Dir  Spd
kts
Gust
kts
Height
m
Period
s
Dir
24/11:30pm E 5 8 - - - - - - - 22.0 1021.7 0.0
24/11:00pm E 6 8 - - - - - - - 22.2 1022.0 0.0
24/10:30pm E 6 9 - - - - - - - 21.9 1022.1 0.0
24/10:00pm E 6 8 - - - - - - - 21.9 1022.2 0.0
24/09:30pm E 4 6 - - - - - - - 21.6 1022.4 0.0
24/09:00pm E 6 10 - - - - - - - 21.8 1022.6 0.0
24/08:30pm ESE 6 8 - - - - - - - 22.2 1022.6 0.0
24/08:00pm ESE 7 9 - - - - - - - 22.1 1022.6 0.0
24/07:30pm ESE 7 10 - - - - - - - 22.3 1022.6 0.0
24/07:00pm ESE 7 12 - - - - - - - 22.1 1022.4 0.0
24/06:30pm ESE 7 11 - - - - - - - 22.3 1022.3 0.0
24/06:00pm ESE 6 8 - - - - - - - 22.0 1022.1 0.0
24/05:30pm ESE 7 9 - - - - - - - 22.2 1022.0 0.0
24/05:00pm ESE 6 8 - - - - - - - 22.6 1021.9 0.0
24/04:30pm SE 7 10 - - - - - - - 22.7 1021.7 0.0
24/04:00pm SE 8 11 - - - - - - - 22.9 1021.7 0.0
24/03:30pm SE 7 9 - - - - - - - 23.8 1021.8 0.0
24/03:00pm SE 6 8 - - - - - - - 24.0 1021.6 0.0
24/02:30pm SE 6 9 - - - - - - - 23.9 1021.5 0.0
24/02:00pm ESE 6 10 - - - - - - - 24.1 1021.6 0.0
24/01:30pm ESE 5 8 - - - - - - - 24.3 1021.9 0.0
24/01:00pm SE 5 7 - - - - - - - 24.0 1022.2 0.0
24/12:30pm ESE 6 7 - - - - - - - 24.3 1022.5 0.0
24/12:00pm ESE 7 9 - - - - - - - 23.7 1022.8 0.0
24/11:30am SE 8 11 - - - - - - - 24.2 1023.2 0.0
24/11:00am SE 6 8 - - - - - - - 24.0 1023.8 0.0
24/10:30am SE 6 8 - - - - - - - 24.2 1024.0 0.0
24/10:00am SE 3 7 - - - - - - - 23.3 1024.2 0.0
24/09:30am SSW 6 8 - - - - - - - 23.1 1024.1 0.0
24/09:00am WSW 4 6 - - - - - - - 22.4 1024.1 2.8
24/08:30am W 5 6 - - - - - - - 21.5 1024.1 2.8
24/08:00am W 5 6 - - - - - - - 20.1 1024.3 2.8
24/07:30am W 3 5 - - - - - - - 19.4 1023.9 2.8
24/07:00am W 6 8 - - - - - - - 18.4 1023.7 2.8
24/06:30am W 5 7 - - - - - - - 18.2 1023.3 2.8
24/06:00am WSW 6 9 - - - - - - - 17.9 1023.2 2.8
24/05:30am W 7 9 - - - - - - - 17.8 1022.9 2.8
24/05:00am W 6 8 - - - - - - - 18.1 1022.8 2.8
24/04:30am SE 4 8 - - - - - - - 19.6 1022.5 2.8
24/04:00am ESE 6 9 - - - - - - - 21.8 1022.2 2.8
24/03:30am ESE 7 10 - - - - - - - 22.0 1022.3 2.8
24/03:00am ESE 7 11 - - - - - - - 21.9 1022.5 2.8
24/02:30am ESE 8 11 - - - - - - - 22.0 1022.7 2.8
24/02:00am ESE 8 11 - - - - - - - 22.0 1023.2 2.8
24/01:30am ESE 9 13 - - - - - - - 22.1 1023.5 2.8
24/01:00am ESE 10 13 - - - - - - - 22.0 1023.4 2.8
24/12:30am ESE 9 14 - - - - - - - 22.1 1023.6 2.8
24/12:00am ESE 10 13 - - - - - - - 22.3 1024.1 2.8
 
Date/Time
EST
Wind Sea
Height
m
Swell Vis
km
Cloud Weather Temp
°C
Press
hPa
Rain since
9am
mm
Dir  Spd
kts
Gust
kts
Height
m
Period
s
Dir
23/11:30pm ESE 8 12 - - - - - - - 22.3 1024.4 2.8
23/11:00pm ESE 11 14 - - - - - - - 22.5 1024.5 2.8
23/10:30pm ESE 11 14 - - - - - - - 22.5 1024.6 2.8
23/10:00pm ESE 12 15 - - - - - - - 22.5 1024.7 2.8
23/09:30pm ESE 13 18 - - - - - - - 22.1 1024.9 2.8
23/09:00pm E 8 12 - - - - - - Recent precip. 21.2 1024.7 2.8
23/08:30pm E 6 14 - - - - - - - 20.9 1024.9 2.6
23/08:00pm E 8 14 - - - - - - - 22.1 1024.7 0.4
23/07:30pm ESE 7 10 - - - - - - - 22.7 1024.6 0.4
23/07:00pm ESE 7 11 - - - - - - - 22.6 1024.5 0.4
23/06:30pm ESE 9 13 - - - - - - - 22.5 1024.1 0.4
23/06:00pm ESE 9 14 - - - - - - - 22.3 1023.9 0.4
23/05:30pm ESE 5 8 - - - - - - - 22.5 1023.7 0.4
23/05:00pm SE 7 11 - - - - - - - 22.8 1023.3 0.4
23/04:30pm ESE 4 6 - - - - - - - 22.6 1023.3 0.4
23/04:00pm SE 4 5 - - - - - - - 22.4 1023.2 0.4
23/03:30pm ESE 9 15 - - - - - - - 22.1 1023.3 0.4
23/03:00pm ESE 7 10 - - - - - - - 23.4 1023.1 0.4
23/02:30pm ESE 6 8 - - - - - - - 23.5 1023.3 0.4
23/02:00pm E 6 11 - - - - - - - 24.3 1023.2 0.4
23/01:30pm ESE 5 8 - - - - - - - 24.3 1023.3 0.4
23/01:00pm ESE 6 9 - - - - - - - 24.7 1023.6 0.4
23/12:30pm ESE 6 10 - - - - - - - 24.3 1023.9 0.4
23/12:00pm E 6 10 - - - - - - - 24.7 1024.2 0.4
23/11:30am ESE 7 11 - - - - - - - 24.5 1024.5 0.4
23/11:00am E 8 11 - - - - - - - 24.0 1024.9 0.4
23/10:30am E 6 10 - - - - - - - 22.6 1025.3 0.4
23/10:00am E 6 9 - - - - - - - 23.7 1025.5 0.0
23/09:30am E 6 10 - - - - - - - 24.3 1025.5 0.0
23/09:00am E 7 11 - - - - - - - 23.6 1025.5 6.8
23/08:30am ESE 4 7 - - - - - - - 22.9 1025.5 6.8
23/08:00am SW 3 5 - - - - - - - 20.6 1025.4 6.8
23/07:30am ESE 5 9 - - - - - - - 19.9 1025.2 6.8
23/07:00am SW 6 9 - - - - - - - 18.1 1024.9 6.0
23/06:30am WSW 6 8 - - - - - - - 18.1 1024.7 5.8
23/06:00am W 6 8 - - - - - - - 17.9 1024.3 4.8
23/05:30am WSW 7 8 - - - - - - - 17.9 1023.9 4.8
23/05:00am W 7 9 - - - - - - - 18.1 1023.7 4.8
23/04:30am W 5 8 - - - - - - - 18.4 1023.4 4.8
23/04:00am SE 4 7 - - - - - - - 19.6 1023.3 4.8
23/03:30am ESE 6 9 - - - - - - - 22.4 1023.1 4.8
23/03:00am ESE 7 11 - - - - - - - 22.3 1023.2 4.8
23/02:30am ESE 7 11 - - - - - - - 22.4 1023.4 4.8
23/02:00am ESE 8 12 - - - - - - - 22.4 1023.5 4.8
23/01:30am ESE 8 12 - - - - - - - 22.4 1023.6 4.8
23/01:00am ESE 7 9 - - - - - - - 22.5 1024.0 4.8
23/12:30am E 7 10 - - - - - - - 22.6 1024.0 4.8
23/12:00am E 7 10 - - - - - - - 22.7 1024.1 4.8
 
Date/Time
EST
Wind Sea
Height
m
Swell Vis
km
Cloud Weather Temp
°C
Press
hPa
Rain since
9am
mm
Dir  Spd
kts
Gust
kts
Height
m
Period
s
Dir
22/11:30pm ESE 8 12 - - - - - - - 22.6 1023.9 4.8
22/11:00pm E 8 13 - - - - - - - 22.7 1024.1 4.8
22/10:30pm E 7 11 - - - - - - - 22.7 1024.2 4.8
22/10:00pm ESE 8 12 - - - - - - - 22.6 1024.0 4.8
22/09:30pm E 8 12 - - - - - - - 22.7 1023.8 4.8
22/09:00pm ESE 8 13 - - - - - - - 22.7 1023.8 4.8
22/08:30pm ESE 8 11 - - - - - - - 22.7 1023.7 4.8
22/08:00pm ESE 9 14 - - - - - - - 22.8 1023.5 4.8
22/07:30pm E 9 12 - - - - - - - 22.8 1023.2 4.8
22/07:00pm E 9 14 - - - - - - - 22.8 1023.0 4.8
22/06:30pm E 7 11 - - - - - - - 22.6 1022.7 4.8
22/06:00pm E 9 12 - - - - - - - 22.6 1022.4 4.8
22/05:30pm E 8 12 - - - - - - - 22.7 1022.0 4.8
22/05:00pm ESE 8 11 - - - - - - - 22.7 1021.7 4.8
22/04:30pm E 7 12 - - - - - - - 22.8 1021.6 4.8
22/04:00pm E 7 10 - - - - - - - 22.9 1021.5 4.8
22/03:30pm S 4 5 - - - - - - - 22.3 1021.4 4.8
22/03:00pm W 5 6 - - - - - - Rain 21.4 1021.4 4.8
22/02:30pm SE 10 15 - - - - - - - 21.0 1021.8 2.6
22/02:00pm SE 9 11 - - - - - - - 23.2 1021.7 0.0
22/01:30pm ESE 7 11 - - - - - - - 24.3 1021.5 0.0
22/01:00pm ESE 8 11 - - - - - - - 24.4 1021.7 0.0
22/12:30pm ESE 8 12 - - - - - - - 24.0 1022.0 0.0
22/12:00pm ESE 8 11 - - - - - - - 23.9 1022.2 0.0
22/11:30am E 5 9 - - - - - - - 24.5 1022.6 0.0
22/11:00am ESE 4 6 - - - - - - - 23.8 1022.5 0.0
22/10:30am SSW 2 5 - - - - - - - 22.9 1022.8 0.0
22/10:00am WNW 4 5 - - - - - - - 22.5 1023.1 0.0
22/09:30am W 4 6 - - - - - - - 21.8 1023.1 0.0
22/09:00am WSW 4 6 - - - - - - - 21.0 1023.0 2.6
22/08:30am W 5 6 - - - - - - - 20.3 1023.0 2.6
22/08:00am WSW 5 6 - - - - - - - 19.8 1022.9 2.6
22/07:30am WSW 5 7 - - - - - - - 18.6 1022.6 2.6
22/07:00am WSW 5 7 - - - - - - - 17.4 1022.3 2.6
22/06:30am WSW 5 7 - - - - - - - 17.1 1022.0 2.6
22/06:00am WSW 7 8 - - - - - - - 17.3 1021.7 2.6
22/05:30am WSW 5 7 - - - - - - - 17.4 1021.6 2.6
22/05:00am WSW 6 7 - - - - - - - 17.8 1021.4 2.6
22/04:30am SW 7 8 - - - - - - - 17.7 1021.3 2.6
22/04:00am WSW 6 9 - - - - - - - 17.7 1021.3 2.6
22/03:30am W 6 8 - - - - - - - 18.4 1021.2 2.6
22/03:00am E 5 8 - - - - - - - 22.1 1021.2 2.6
22/02:30am E 5 8 - - - - - - - 22.0 1021.2 2.6
22/02:00am E 5 7 - - - - - - - 22.3 1021.4 2.6
22/01:30am E 5 8 - - - - - - - 22.2 1022.0 2.6
22/01:00am E 6 9 - - - - - - - 22.2 1022.1 2.6
22/12:30am ESE 7 10 - - - - - - - 22.3 1022.3 2.6

Other formats

Comma delimited format used in spreadsheet applications
http://www.bom.gov.au/fwo/IDN60701/IDN60701.94589.axf

JavaScript Object Notation format (JSON) in row-major order
http://www.bom.gov.au/fwo/IDN60701/IDN60701.94589.json

Data quality

Most of these data are generated automatically and are frequently updated. Quality checks on data are not normally performed. It is possible for incorrect values to appear. Refer to information at About Latest Weather Observations and please check the disclaimer before using these data.